createdAt,value
2019-03-08T00:00:03.082Z,6.00
2019-03-08T00:00:43.445Z,6.00
2019-03-08T00:01:23.769Z,6.00
2019-03-08T00:01:56.802Z,6.00
2019-03-08T00:02:29.791Z,6.00
2019-03-08T00:03:02.923Z,6.00
2019-03-08T00:03:35.922Z,6.00
2019-03-08T00:04:08.983Z,6.00
2019-03-08T00:04:41.921Z,6.00
2019-03-08T00:05:15.009Z,5.94
2019-03-08T00:05:48.352Z,5.94
2019-03-08T00:06:21.427Z,5.94
2019-03-08T00:06:54.333Z,5.94
2019-03-08T00:07:27.488Z,5.94
2019-03-08T00:08:00.478Z,5.94
2019-03-08T00:08:33.528Z,6.00
2019-03-08T00:09:08.966Z,5.94
2019-03-08T00:09:43.746Z,5.94
2019-03-08T00:10:16.877Z,5.94
2019-03-08T00:10:49.937Z,5.94
2019-03-08T00:11:23.273Z,5.94
2019-03-08T00:11:57.385Z,5.94
2019-03-08T00:12:32.282Z,5.94
2019-03-08T00:13:05.499Z,5.94
2019-03-08T00:13:38.931Z,5.94
2019-03-08T00:14:11.991Z,5.94
2019-03-08T00:14:45.034Z,5.94
2019-03-08T00:15:18.101Z,5.94
2019-03-08T00:15:50.998Z,5.94
2019-03-08T00:16:23.935Z,5.94
2019-03-08T00:16:56.830Z,5.94
2019-03-08T00:17:29.880Z,5.94
2019-03-08T00:18:02.981Z,5.94
2019-03-08T00:18:35.961Z,5.94
2019-03-08T00:19:10.275Z,5.94
2019-03-08T00:19:43.283Z,5.94
2019-03-08T00:20:16.256Z,5.94
2019-03-08T00:20:49.299Z,5.94
2019-03-08T00:21:22.302Z,5.94
2019-03-08T00:21:55.090Z,5.94
2019-03-08T00:26:04.323Z,5.94
2019-03-08T00:26:37.477Z,5.94
2019-03-08T00:27:10.511Z,5.94
2019-03-08T00:27:43.538Z,5.94
2019-03-08T00:28:18.206Z,5.94
2019-03-08T00:28:51.393Z,5.94
2019-03-08T00:29:24.269Z,5.94
2019-03-08T00:29:57.307Z,5.94
2019-03-08T00:30:30.360Z,5.94
2019-03-08T00:31:03.408Z,5.94
2019-03-08T00:31:36.398Z,5.94
2019-03-08T00:32:09.444Z,5.94
2019-03-08T00:32:42.568Z,5.94
2019-03-08T00:33:15.602Z,5.94
2019-03-08T00:33:48.574Z,5.94
2019-03-08T00:34:21.733Z,5.94
2019-03-08T00:34:54.642Z,5.94
2019-03-08T00:35:27.708Z,5.94
2019-03-08T00:36:00.704Z,5.94
2019-03-08T00:36:33.761Z,5.94
2019-03-08T00:37:06.756Z,5.94
2019-03-08T00:41:08.131Z,5.94
2019-03-08T00:41:41.776Z,5.94
2019-03-08T00:42:15.159Z,5.94
2019-03-08T00:42:48.178Z,5.94
2019-03-08T00:43:21.645Z,5.94
2019-03-08T00:43:54.617Z,5.94
2019-03-08T00:44:27.674Z,5.94
2019-03-08T00:45:00.802Z,5.94
2019-03-08T00:45:34.062Z,5.94
2019-03-08T00:46:06.908Z,5.94
2019-03-08T00:46:39.946Z,5.94
2019-03-08T00:47:15.926Z,5.94
2019-03-08T00:47:50.520Z,5.94
2019-03-08T00:48:25.011Z,5.94
2019-03-08T00:48:57.936Z,5.94
2019-03-08T00:49:31.121Z,5.94
2019-03-08T00:50:04.836Z,5.94
2019-03-08T00:50:37.904Z,5.94
2019-03-08T00:51:10.873Z,5.94
2019-03-08T00:51:43.821Z,5.94
2019-03-08T00:52:16.841Z,5.94
2019-03-08T00:55:51.219Z,5.94
2019-03-08T00:56:24.142Z,5.94
2019-03-08T00:56:57.262Z,5.94
2019-03-08T00:57:30.367Z,5.94
2019-03-08T00:58:03.556Z,5.94
2019-03-08T00:58:36.521Z,5.94
2019-03-08T00:59:09.430Z,5.94
2019-03-08T00:59:42.345Z,5.94
2019-03-08T01:00:16.547Z,5.94
2019-03-08T01:00:49.608Z,5.94
2019-03-08T01:01:22.678Z,5.94
2019-03-08T01:01:55.532Z,5.94
2019-03-08T01:02:28.509Z,5.94
2019-03-08T01:03:01.615Z,5.94
2019-03-08T01:03:34.840Z,5.94
2019-03-08T01:04:07.853Z,5.94
2019-03-08T01:04:40.868Z,5.94
2019-03-08T01:05:15.023Z,5.94
2019-03-08T01:05:47.950Z,5.94
2019-03-08T01:06:20.999Z,5.94
2019-03-08T01:06:53.922Z,5.94
2019-03-08T01:07:27.100Z,5.94
2019-03-08T01:10:54.771Z,5.94
2019-03-08T01:11:28.094Z,5.94
2019-03-08T01:12:01.120Z,5.94
2019-03-08T01:12:34.162Z,5.94
2019-03-08T01:13:07.508Z,5.94
2019-03-08T01:13:40.557Z,5.94
2019-03-08T01:14:13.978Z,5.94
2019-03-08T01:14:47.066Z,5.94
2019-03-08T01:15:20.179Z,5.94
2019-03-08T01:15:54.153Z,5.94
2019-03-08T01:16:27.180Z,5.94
2019-03-08T01:17:00.244Z,5.94
2019-03-08T01:17:33.307Z,5.94
2019-03-08T01:18:06.393Z,5.94
2019-03-08T01:18:39.547Z,5.87
2019-03-08T01:19:12.500Z,5.94
2019-03-08T01:19:45.556Z,5.87
2019-03-08T01:20:20.218Z,5.87
2019-03-08T01:20:53.283Z,5.87
2019-03-08T01:21:26.283Z,5.87
2019-03-08T01:21:59.380Z,5.87
2019-03-08T01:22:32.544Z,5.87
2019-03-08T01:25:31.160Z,5.87
2019-03-08T01:26:04.583Z,5.87
2019-03-08T01:26:37.593Z,5.87
2019-03-08T01:27:10.521Z,5.87
2019-03-08T01:28:03.166Z,5.87
2019-03-08T01:28:36.790Z,5.87
2019-03-08T01:29:10.198Z,5.87
2019-03-08T01:29:43.132Z,5.87
2019-03-08T01:30:16.473Z,5.87
2019-03-08T01:30:49.507Z,5.87
2019-03-08T01:31:23.381Z,5.87
2019-03-08T01:31:56.422Z,5.87
2019-03-08T01:32:29.710Z,5.87
2019-03-08T01:33:02.975Z,5.87
2019-03-08T01:33:35.968Z,5.87
2019-03-08T01:34:08.990Z,5.81
2019-03-08T01:34:42.220Z,5.87
2019-03-08T01:35:15.278Z,5.87
2019-03-08T01:35:48.272Z,5.87
2019-03-08T01:36:21.225Z,5.81
2019-03-08T01:36:54.218Z,5.87
2019-03-08T01:37:27.081Z,5.87
2019-03-08T01:39:54.063Z,5.87
2019-03-08T01:40:27.672Z,5.81
2019-03-08T01:41:00.761Z,5.81
2019-03-08T01:41:33.818Z,5.87
2019-03-08T01:42:06.787Z,5.87
2019-03-08T01:42:39.819Z,5.87
2019-03-08T01:43:12.720Z,5.87
2019-03-08T01:43:45.680Z,5.87
2019-03-08T01:44:18.457Z,5.87
2019-03-08T01:44:51.659Z,5.81
2019-03-08T01:45:24.652Z,5.87
2019-03-08T01:45:57.701Z,5.87
2019-03-08T01:46:30.808Z,5.81
2019-03-08T01:47:03.863Z,5.81
2019-03-08T01:47:36.758Z,5.81
2019-03-08T01:48:09.585Z,5.81
2019-03-08T01:48:42.883Z,5.81
2019-03-08T01:49:15.879Z,5.81
2019-03-08T01:49:48.887Z,5.81
2019-03-08T01:50:21.890Z,5.81
2019-03-08T01:50:54.897Z,5.81
2019-03-08T01:51:27.903Z,5.81
2019-03-08T01:52:00.937Z,5.81
2019-03-08T01:52:33.971Z,5.81
2019-03-08T01:54:50.831Z,5.81
2019-03-08T01:55:24.013Z,5.81
2019-03-08T01:55:58.700Z,5.81
2019-03-08T01:56:31.898Z,5.75
2019-03-08T01:57:04.860Z,5.75
2019-03-08T01:57:38.159Z,5.81
2019-03-08T01:58:12.781Z,5.75
2019-03-08T01:58:46.098Z,5.75
2019-03-08T01:59:19.215Z,5.75
2019-03-08T01:59:52.335Z,5.75
2019-03-08T02:00:25.453Z,5.75
2019-03-08T02:00:58.431Z,5.75
2019-03-08T02:01:31.658Z,5.75
2019-03-08T02:02:04.655Z,5.75
2019-03-08T02:02:37.692Z,5.75
2019-03-08T02:03:10.722Z,5.75
2019-03-08T02:03:43.756Z,5.75
2019-03-08T02:04:16.647Z,5.75
2019-03-08T02:04:49.657Z,5.75
2019-03-08T02:05:22.666Z,5.75
2019-03-08T02:05:55.685Z,5.75
2019-03-08T02:06:28.603Z,5.75
2019-03-08T02:07:01.690Z,5.75
2019-03-08T02:07:34.579Z,5.75
2019-03-08T02:09:50.135Z,5.75
2019-03-08T02:10:23.142Z,5.75
2019-03-08T02:10:56.074Z,5.75
2019-03-08T02:11:29.375Z,5.81
2019-03-08T02:12:02.505Z,5.81
2019-03-08T02:12:35.517Z,5.81
2019-03-08T02:13:08.550Z,5.81
2019-03-08T02:13:41.667Z,5.81
2019-03-08T02:14:16.162Z,5.81
2019-03-08T02:14:49.173Z,5.81
2019-03-08T02:15:22.211Z,5.81
2019-03-08T02:15:55.405Z,5.87
2019-03-08T02:16:28.228Z,5.87
2019-03-08T02:17:01.201Z,5.87
2019-03-08T02:17:34.284Z,5.87
2019-03-08T02:18:07.291Z,5.87
2019-03-08T02:18:40.315Z,5.87
2019-03-08T02:19:13.232Z,5.87
2019-03-08T02:19:46.253Z,5.87
2019-03-08T02:20:20.473Z,5.87
2019-03-08T02:20:53.498Z,5.87
2019-03-08T02:21:26.486Z,5.87
2019-03-08T02:21:59.576Z,5.87
2019-03-08T02:22:32.484Z,5.87
2019-03-08T02:24:47.397Z,5.87
2019-03-08T02:25:20.512Z,5.87
2019-03-08T02:25:53.690Z,5.87
2019-03-08T02:26:27.795Z,5.87
2019-03-08T02:27:00.860Z,5.94
2019-03-08T02:27:33.865Z,5.94
2019-03-08T02:28:08.546Z,5.94
2019-03-08T02:28:41.493Z,5.94
2019-03-08T02:29:14.300Z,5.94
2019-03-08T02:29:47.299Z,5.94
2019-03-08T02:30:21.221Z,5.94
2019-03-08T02:30:54.214Z,5.94
2019-03-08T02:31:27.198Z,5.94
2019-03-08T02:32:01.126Z,6.00
2019-03-08T02:32:33.900Z,6.00
2019-03-08T02:33:07.293Z,6.00
2019-03-08T02:33:40.324Z,6.00
2019-03-08T02:34:13.518Z,6.00
2019-03-08T02:34:46.403Z,6.00
2019-03-08T02:35:19.846Z,6.00
2019-03-08T02:35:52.850Z,6.00
2019-03-08T02:36:25.911Z,6.00
2019-03-08T02:36:58.807Z,6.00
2019-03-08T02:37:31.608Z,6.06
2019-03-08T02:39:51.031Z,6.12
2019-03-08T02:40:27.794Z,6.12
2019-03-08T02:41:00.688Z,6.12
2019-03-08T02:41:33.717Z,6.12
2019-03-08T02:42:06.879Z,6.19
2019-03-08T02:42:39.879Z,6.12
2019-03-08T02:43:15.887Z,6.12
2019-03-08T02:43:48.932Z,6.12
2019-03-08T02:44:21.938Z,6.12
2019-03-08T02:44:54.967Z,6.12
2019-03-08T02:45:29.089Z,6.12
2019-03-08T02:46:02.118Z,6.12
2019-03-08T02:46:35.133Z,6.12
2019-03-08T02:47:08.261Z,6.12
2019-03-08T02:47:41.256Z,6.12
2019-03-08T02:48:14.331Z,6.12
2019-03-08T02:48:47.348Z,6.12
2019-03-08T02:49:20.436Z,6.12
2019-03-08T02:49:53.460Z,6.12
2019-03-08T02:50:26.392Z,6.12
2019-03-08T02:50:59.517Z,6.12
2019-03-08T02:51:32.464Z,6.12
2019-03-08T02:52:05.440Z,6.12
2019-03-08T02:52:38.516Z,6.12
2019-03-08T02:54:57.364Z,6.12
2019-03-08T02:55:30.369Z,6.12
2019-03-08T02:56:03.355Z,6.12
2019-03-08T02:56:36.379Z,6.12
2019-03-08T02:57:09.420Z,6.12
2019-03-08T02:57:42.418Z,6.06
2019-03-08T02:58:15.502Z,6.06
2019-03-08T02:58:48.534Z,6.06
2019-03-08T02:59:21.442Z,6.00
2019-03-08T02:59:55.808Z,6.00
2019-03-08T03:00:37.024Z,6.00
2019-03-08T03:01:09.928Z,6.00
2019-03-08T03:01:42.920Z,6.00
2019-03-08T03:02:15.946Z,6.00
2019-03-08T03:02:49.030Z,6.00
2019-03-08T03:03:22.001Z,6.00
2019-03-08T03:03:55.346Z,6.00
2019-03-08T03:04:28.270Z,5.94
2019-03-08T03:05:01.718Z,5.94
2019-03-08T03:05:34.730Z,5.94
2019-03-08T03:06:09.672Z,5.94
2019-03-08T03:06:42.887Z,5.94
2019-03-08T03:07:16.024Z,5.94
2019-03-08T03:07:49.031Z,5.94
2019-03-08T03:09:50.027Z,5.87
2019-03-08T03:10:22.974Z,5.87
2019-03-08T03:10:56.005Z,5.87
2019-03-08T03:11:29.033Z,5.87
2019-03-08T03:12:03.142Z,5.87
2019-03-08T03:12:35.940Z,5.87
2019-03-08T03:13:09.038Z,5.94
2019-03-08T03:13:42.088Z,5.94
2019-03-08T03:14:14.996Z,5.94
2019-03-08T03:14:48.050Z,5.94
2019-03-08T03:15:21.216Z,5.94
2019-03-08T03:15:54.210Z,5.94
2019-03-08T03:16:27.426Z,5.94
2019-03-08T03:17:00.900Z,5.94
2019-03-08T03:17:34.153Z,5.94
2019-03-08T03:18:07.174Z,5.94
2019-03-08T03:18:40.508Z,5.94
2019-03-08T03:19:14.629Z,5.94
2019-03-08T03:19:47.660Z,5.94
2019-03-08T03:20:20.729Z,5.94
2019-03-08T03:20:53.620Z,5.94
2019-03-08T03:21:26.679Z,6.00
2019-03-08T03:21:59.600Z,6.00
2019-03-08T03:22:32.552Z,6.00
2019-03-08T03:23:05.420Z,6.06
2019-03-08T03:25:04.254Z,6.12
2019-03-08T03:25:39.121Z,6.12
2019-03-08T03:26:12.096Z,6.06
2019-03-08T03:26:45.214Z,6.06
2019-03-08T03:27:18.283Z,6.06
2019-03-08T03:27:51.852Z,6.12
2019-03-08T03:28:24.734Z,6.12
2019-03-08T03:28:57.712Z,6.12
2019-03-08T03:29:32.032Z,6.12
2019-03-08T03:30:05.838Z,6.06
2019-03-08T03:30:38.789Z,6.06
2019-03-08T03:31:13.369Z,6.06
2019-03-08T03:31:46.285Z,6.12
2019-03-08T03:32:19.346Z,6.12
2019-03-08T03:32:52.279Z,6.12
2019-03-08T03:33:25.239Z,6.19
2019-03-08T03:33:58.195Z,6.19
2019-03-08T03:34:31.202Z,6.19
2019-03-08T03:35:04.634Z,6.19
2019-03-08T03:35:37.736Z,6.19
2019-03-08T03:36:10.733Z,6.19
2019-03-08T03:36:43.716Z,6.19
2019-03-08T03:37:16.791Z,6.19
2019-03-08T03:37:49.967Z,6.19
2019-03-08T03:39:43.881Z,6.12
2019-03-08T03:40:16.939Z,6.12
2019-03-08T03:40:49.962Z,6.06
2019-03-08T03:41:22.918Z,6.06
2019-03-08T03:41:56.000Z,6.00
2019-03-08T03:42:30.214Z,6.00
2019-03-08T03:43:03.934Z,6.00
2019-03-08T03:43:37.022Z,6.00
2019-03-08T03:44:10.060Z,6.00
2019-03-08T03:44:43.324Z,6.00
2019-03-08T03:45:16.732Z,5.94
2019-03-08T03:45:49.810Z,5.94
2019-03-08T03:46:22.994Z,5.94
2019-03-08T03:46:56.020Z,5.94
2019-03-08T03:47:28.958Z,5.94
2019-03-08T03:48:02.023Z,5.94
2019-03-08T03:48:35.172Z,5.87
2019-03-08T03:49:08.180Z,5.94
2019-03-08T03:49:41.262Z,5.94
2019-03-08T03:50:15.024Z,5.94
2019-03-08T03:50:49.173Z,5.94
2019-03-08T03:51:22.050Z,5.94
2019-03-08T03:51:55.249Z,5.94
2019-03-08T03:52:28.057Z,5.94
2019-03-08T03:53:01.364Z,6.00
2019-03-08T03:53:52.422Z,6.00
2019-03-08T03:54:25.235Z,6.06
2019-03-08T03:54:58.354Z,6.06
2019-03-08T03:55:31.364Z,6.12
2019-03-08T03:56:04.382Z,6.12
2019-03-08T03:56:37.514Z,6.12
2019-03-08T03:57:10.436Z,6.12
2019-03-08T03:57:43.430Z,6.12
2019-03-08T03:58:16.222Z,6.12
2019-03-08T03:58:49.152Z,6.12
2019-03-08T03:59:22.084Z,6.12
2019-03-08T03:59:55.274Z,6.06
2019-03-08T04:00:28.367Z,6.06
2019-03-08T04:01:18.704Z,6.06
2019-03-08T04:01:51.610Z,6.06
2019-03-08T04:02:24.526Z,6.06
2019-03-08T04:02:57.557Z,6.06
2019-03-08T04:03:30.614Z,6.06
2019-03-08T04:04:03.687Z,6.00
2019-03-08T04:04:36.912Z,6.00
2019-03-08T04:05:10.093Z,6.00
2019-03-08T04:05:43.083Z,5.94
2019-03-08T04:06:16.108Z,5.94
2019-03-08T04:06:49.023Z,5.87
2019-03-08T04:07:21.938Z,5.87
2019-03-08T04:07:54.844Z,5.87
2019-03-08T04:08:46.210Z,5.87
2019-03-08T04:09:19.164Z,5.87
2019-03-08T04:09:52.297Z,5.87
2019-03-08T04:10:25.204Z,5.87
2019-03-08T04:10:58.140Z,5.87
2019-03-08T04:11:31.160Z,5.81
2019-03-08T04:12:04.186Z,5.81
2019-03-08T04:12:37.206Z,5.81
2019-03-08T04:13:10.264Z,5.81
2019-03-08T04:13:43.179Z,5.81
2019-03-08T04:14:16.259Z,5.81
2019-03-08T04:14:49.198Z,5.75
2019-03-08T04:15:22.385Z,5.75
2019-03-08T04:15:55.452Z,5.75
2019-03-08T04:16:28.404Z,5.75
2019-03-08T04:17:01.548Z,5.69
2019-03-08T04:17:34.605Z,5.69
2019-03-08T04:18:07.975Z,5.62
2019-03-08T04:18:40.920Z,5.62
2019-03-08T04:19:13.993Z,5.62
2019-03-08T04:19:48.745Z,5.62
2019-03-08T04:20:23.062Z,5.56
2019-03-08T04:20:55.936Z,5.56
2019-03-08T04:21:30.114Z,5.50
2019-03-08T04:22:03.281Z,5.44
2019-03-08T04:22:36.335Z,5.44
2019-03-08T04:23:09.312Z,5.44
2019-03-08T04:23:42.358Z,5.37
2019-03-08T04:24:16.900Z,5.37
2019-03-08T04:24:51.396Z,5.37
2019-03-08T04:25:24.372Z,5.37
2019-03-08T04:25:57.482Z,5.37
2019-03-08T04:26:30.448Z,5.37
2019-03-08T04:27:03.558Z,5.37
2019-03-08T04:27:36.602Z,5.31
2019-03-08T04:28:11.125Z,5.31
2019-03-08T04:28:44.171Z,5.25
2019-03-08T04:29:17.249Z,5.25
2019-03-08T04:29:50.174Z,5.25
2019-03-08T04:30:23.177Z,5.25
2019-03-08T04:30:56.080Z,5.19
2019-03-08T04:31:28.902Z,5.19
2019-03-08T04:32:01.931Z,5.19
2019-03-08T04:32:34.724Z,5.19
2019-03-08T04:33:07.722Z,5.19
2019-03-08T04:33:41.726Z,5.19
2019-03-08T04:34:14.743Z,5.19
2019-03-08T04:34:47.786Z,5.25
2019-03-08T04:35:20.831Z,5.25
2019-03-08T04:35:53.750Z,5.25
2019-03-08T04:36:26.791Z,5.31
2019-03-08T04:36:59.681Z,5.31
2019-03-08T04:37:33.105Z,5.31
2019-03-08T04:38:06.110Z,5.31
2019-03-08T04:38:39.116Z,5.37
2019-03-08T04:39:12.100Z,5.37
2019-03-08T04:39:45.374Z,5.44
2019-03-08T04:40:18.289Z,5.44
2019-03-08T04:40:51.418Z,5.44
2019-03-08T04:41:24.421Z,5.50
2019-03-08T04:41:57.456Z,5.50
2019-03-08T04:42:30.352Z,5.50
2019-03-08T04:43:03.466Z,5.50
2019-03-08T04:43:38.082Z,5.50
2019-03-08T04:44:10.984Z,5.50
2019-03-08T04:44:43.874Z,5.56
2019-03-08T04:45:16.911Z,5.56
2019-03-08T04:45:49.862Z,5.62
2019-03-08T04:46:22.902Z,5.62
2019-03-08T04:46:55.941Z,5.62
2019-03-08T04:47:28.760Z,5.62
2019-03-08T04:48:01.786Z,5.62
2019-03-08T04:48:34.737Z,5.69
2019-03-08T04:49:07.661Z,5.69
2019-03-08T04:49:40.574Z,5.69
2019-03-08T04:50:13.922Z,5.69
2019-03-08T04:50:46.830Z,5.62
2019-03-08T04:51:20.058Z,5.62
2019-03-08T04:51:54.082Z,5.62
2019-03-08T04:52:27.320Z,5.56
2019-03-08T04:53:00.279Z,5.56
2019-03-08T04:53:33.467Z,5.56
2019-03-08T04:58:11.852Z,5.37
2019-03-08T04:58:44.777Z,5.37
2019-03-08T04:59:17.834Z,5.37
2019-03-08T04:59:50.636Z,5.31
2019-03-08T05:00:23.935Z,5.31
2019-03-08T05:00:56.922Z,5.31
2019-03-08T05:01:29.960Z,5.31
2019-03-08T05:02:02.866Z,5.31
2019-03-08T05:02:35.826Z,5.31
2019-03-08T05:03:08.734Z,5.25
2019-03-08T05:03:41.816Z,5.25
2019-03-08T05:04:14.709Z,5.25
2019-03-08T05:04:47.744Z,5.25
2019-03-08T05:05:20.672Z,5.25
2019-03-08T05:05:53.836Z,5.25
2019-03-08T05:06:26.638Z,5.31
2019-03-08T05:06:59.683Z,5.31
2019-03-08T05:07:32.678Z,5.31
2019-03-08T05:08:05.529Z,5.37
2019-03-08T05:08:38.541Z,5.37
2019-03-08T05:12:45.924Z,5.44
2019-03-08T05:13:18.920Z,5.44
2019-03-08T05:13:52.082Z,5.44
2019-03-08T05:14:24.958Z,5.50
2019-03-08T05:14:57.910Z,5.50
2019-03-08T05:15:30.869Z,5.50
2019-03-08T05:16:03.859Z,5.56
2019-03-08T05:16:36.738Z,5.56
2019-03-08T05:17:10.590Z,5.50
2019-03-08T05:17:43.658Z,5.50
2019-03-08T05:18:16.668Z,5.50
2019-03-08T05:18:49.668Z,5.44
2019-03-08T05:19:22.694Z,5.44
2019-03-08T05:19:55.794Z,5.44
2019-03-08T05:20:28.840Z,5.50
2019-03-08T05:21:02.139Z,5.50
2019-03-08T05:21:36.712Z,5.50
2019-03-08T05:22:09.898Z,5.56
2019-03-08T05:22:42.838Z,5.56
2019-03-08T05:23:15.721Z,5.56
2019-03-08T05:23:49.710Z,5.56
2019-03-08T05:27:22.484Z,5.56
2019-03-08T05:27:55.532Z,5.50
2019-03-08T05:28:28.324Z,5.44
2019-03-08T05:29:01.684Z,5.37
2019-03-08T05:29:34.658Z,5.25
2019-03-08T05:30:09.160Z,5.19
2019-03-08T05:30:42.048Z,5.12
2019-03-08T05:31:14.995Z,5.06
2019-03-08T05:31:47.878Z,5.00
2019-03-08T05:32:20.830Z,4.94
2019-03-08T05:32:53.626Z,4.87
2019-03-08T05:33:26.708Z,4.87
2019-03-08T05:33:59.526Z,4.81
2019-03-08T05:34:32.494Z,4.81
2019-03-08T05:35:06.181Z,4.75
2019-03-08T05:35:39.176Z,4.75
2019-03-08T05:36:11.935Z,4.75
2019-03-08T05:36:44.984Z,4.69
2019-03-08T05:37:17.961Z,4.69
2019-03-08T05:37:50.998Z,4.62
2019-03-08T05:38:23.898Z,4.62
2019-03-08T05:38:56.830Z,4.62
2019-03-08T05:39:29.824Z,4.69
2019-03-08T05:40:03.153Z,4.69
2019-03-08T05:40:36.241Z,4.69
2019-03-08T05:41:09.243Z,4.69
2019-03-08T05:41:42.118Z,4.69
2019-03-08T05:42:15.324Z,4.69
2019-03-08T05:42:48.499Z,4.69
2019-03-08T05:43:21.550Z,4.69
2019-03-08T05:43:54.724Z,4.75
2019-03-08T05:44:27.524Z,4.75
2019-03-08T05:45:00.827Z,4.75
2019-03-08T05:45:33.767Z,4.75
2019-03-08T05:46:06.774Z,4.75
2019-03-08T05:46:39.802Z,4.75
2019-03-08T05:47:12.604Z,4.75
2019-03-08T05:47:45.671Z,4.75
2019-03-08T05:48:18.574Z,4.75
2019-03-08T05:48:51.562Z,4.75
2019-03-08T05:49:24.463Z,4.75
2019-03-08T05:49:57.266Z,4.75
2019-03-08T05:50:30.286Z,4.75
2019-03-08T05:51:03.413Z,4.75
2019-03-08T05:51:36.380Z,4.81
2019-03-08T05:52:09.359Z,4.81
2019-03-08T05:52:43.367Z,4.81
2019-03-08T05:53:16.206Z,4.81
2019-03-08T05:53:49.276Z,4.87
2019-03-08T05:56:46.504Z,4.94
2019-03-08T05:57:19.428Z,5.00
2019-03-08T05:57:52.336Z,5.00
2019-03-08T05:58:25.282Z,4.94
2019-03-08T05:58:58.282Z,5.00
2019-03-08T05:59:31.140Z,5.00
2019-03-08T06:00:04.821Z,5.00
2019-03-08T06:00:38.208Z,5.00
2019-03-08T06:01:11.046Z,5.00
2019-03-08T06:01:44.053Z,5.00
2019-03-08T06:02:17.380Z,5.00
2019-03-08T06:02:50.510Z,5.00
2019-03-08T06:03:23.747Z,5.00
2019-03-08T06:03:56.657Z,5.06
2019-03-08T06:04:29.810Z,5.06
2019-03-08T06:05:03.289Z,5.06
2019-03-08T06:05:36.212Z,5.06
2019-03-08T06:06:09.224Z,5.12
2019-03-08T06:06:42.310Z,5.12
2019-03-08T06:07:15.202Z,5.19
2019-03-08T06:07:48.036Z,5.19
2019-03-08T06:08:22.136Z,5.19
2019-03-08T06:08:55.106Z,5.12
2019-03-08T06:11:37.838Z,5.12
2019-03-08T06:12:10.854Z,5.06
2019-03-08T06:12:43.740Z,5.06
2019-03-08T06:13:16.751Z,5.06
2019-03-08T06:13:49.732Z,5.00
2019-03-08T06:14:22.644Z,5.00
2019-03-08T06:14:56.966Z,5.00
2019-03-08T06:15:30.102Z,4.94
2019-03-08T06:16:04.247Z,4.94
2019-03-08T06:16:37.215Z,4.94
2019-03-08T06:17:10.315Z,4.87
2019-03-08T06:17:43.168Z,4.87
2019-03-08T06:18:16.271Z,4.87
2019-03-08T06:18:49.291Z,4.87
2019-03-08T06:19:22.323Z,4.87
2019-03-08T06:19:55.420Z,4.87
2019-03-08T06:20:28.429Z,4.94
2019-03-08T06:21:01.348Z,4.94
2019-03-08T06:21:34.317Z,4.94
2019-03-08T06:22:07.305Z,4.94
2019-03-08T06:22:40.200Z,4.94
2019-03-08T06:23:13.237Z,4.94
2019-03-08T06:23:46.237Z,4.87
2019-03-08T06:26:15.187Z,5.00
2019-03-08T06:26:48.070Z,5.06
2019-03-08T06:27:21.007Z,5.06
2019-03-08T06:27:54.105Z,5.12
2019-03-08T06:28:27.148Z,5.12
2019-03-08T06:29:00.132Z,5.12
2019-03-08T06:29:33.044Z,5.12
2019-03-08T06:30:06.072Z,5.19
2019-03-08T06:30:39.860Z,5.19
2019-03-08T06:31:12.750Z,5.19
2019-03-08T06:31:45.708Z,5.12
2019-03-08T06:32:18.614Z,5.12
2019-03-08T06:32:51.778Z,5.12
2019-03-08T06:33:24.777Z,5.12
2019-03-08T06:33:57.803Z,5.12
2019-03-08T06:34:30.796Z,5.12
2019-03-08T06:35:03.961Z,5.12
2019-03-08T06:35:36.986Z,5.12
2019-03-08T06:36:11.488Z,5.12
2019-03-08T06:36:44.481Z,5.12
2019-03-08T06:37:17.531Z,5.12
2019-03-08T06:37:50.751Z,5.06
2019-03-08T06:38:23.676Z,5.06
2019-03-08T06:38:56.992Z,5.12
2019-03-08T06:41:12.383Z,5.12
2019-03-08T06:41:45.298Z,5.12
2019-03-08T06:42:18.422Z,5.19
2019-03-08T06:42:51.419Z,5.19
2019-03-08T06:43:24.405Z,5.12
2019-03-08T06:43:57.290Z,5.12
2019-03-08T06:44:30.296Z,5.12
2019-03-08T06:45:04.345Z,5.12
2019-03-08T06:45:37.269Z,5.12
2019-03-08T06:46:10.278Z,5.12
2019-03-08T06:46:43.242Z,5.12
2019-03-08T06:47:16.220Z,5.19
2019-03-08T06:47:50.314Z,5.19
2019-03-08T06:48:23.223Z,5.19
2019-03-08T06:48:56.170Z,5.12
2019-03-08T06:49:29.268Z,5.19
2019-03-08T06:50:02.539Z,5.19
2019-03-08T06:50:36.520Z,5.19
2019-03-08T06:51:09.614Z,5.25
2019-03-08T06:51:42.413Z,5.25
2019-03-08T06:52:15.388Z,5.25
2019-03-08T06:52:48.406Z,5.31
2019-03-08T06:53:21.354Z,5.31
2019-03-08T06:53:54.360Z,5.31
2019-03-08T06:56:09.806Z,5.31
2019-03-08T06:56:42.710Z,5.31
2019-03-08T06:57:16.072Z,5.37
2019-03-08T06:57:58.886Z,5.37
2019-03-08T06:59:03.543Z,5.37
2019-03-08T06:59:47.700Z,5.44
2019-03-08T07:00:58.786Z,5.44
2019-03-08T07:01:35.202Z,5.50
2019-03-08T07:02:10.098Z,5.50
2019-03-08T07:02:43.088Z,5.50
2019-03-08T07:03:16.002Z,5.50
2019-03-08T07:03:48.886Z,5.56
2019-03-08T07:04:23.249Z,5.56
2019-03-08T07:04:56.168Z,5.56
2019-03-08T07:05:29.200Z,5.62
2019-03-08T07:06:02.200Z,5.62
2019-03-08T07:06:36.282Z,5.62
2019-03-08T07:07:09.192Z,5.62
2019-03-08T07:07:42.376Z,5.62
2019-03-08T07:08:15.370Z,5.62
2019-03-08T07:08:50.408Z,5.69
2019-03-08T07:10:47.401Z,5.75
2019-03-08T07:11:20.411Z,5.75
2019-03-08T07:11:53.308Z,5.81
2019-03-08T07:12:26.348Z,5.81
2019-03-08T07:13:03.131Z,5.87
2019-03-08T07:13:34.167Z,5.87
2019-03-08T07:14:07.068Z,5.87
2019-03-08T07:14:39.931Z,5.87
2019-03-08T07:15:13.074Z,5.87
2019-03-08T07:15:46.414Z,5.94
2019-03-08T07:16:19.337Z,5.94
2019-03-08T07:16:52.294Z,5.94
2019-03-08T07:17:25.312Z,5.94
2019-03-08T07:17:59.934Z,5.94
2019-03-08T07:18:32.916Z,5.94
2019-03-08T07:19:06.048Z,6.00
2019-03-08T07:19:48.746Z,6.00
2019-03-08T07:20:29.547Z,6.00
2019-03-08T07:21:11.691Z,6.06
2019-03-08T07:22:07.189Z,6.06
2019-03-08T07:22:59.646Z,6.06
2019-03-08T07:23:39.595Z,6.19
2019-03-08T07:25:54.865Z,6.31
2019-03-08T07:26:45.789Z,6.44
2019-03-08T07:27:42.512Z,6.56
2019-03-08T07:28:26.798Z,6.69
2019-03-08T07:29:19.335Z,6.62
2019-03-08T07:30:13.102Z,6.56
2019-03-08T07:31:14.822Z,6.56
2019-03-08T07:32:17.662Z,6.56
2019-03-08T07:33:00.442Z,6.56
2019-03-08T07:33:59.564Z,6.56
2019-03-08T07:34:43.980Z,6.62
2019-03-08T07:35:36.654Z,6.69
2019-03-08T07:36:17.882Z,6.75
2019-03-08T07:37:16.142Z,6.81
2019-03-08T07:38:08.842Z,6.87
2019-03-08T07:38:53.428Z,7.00
2019-03-08T07:44:26.226Z,8.19
2019-03-08T07:45:18.770Z,8.31
2019-03-08T07:46:10.230Z,8.38
2019-03-08T07:46:59.524Z,8.31
2019-03-08T07:47:55.111Z,8.19
2019-03-08T07:48:56.892Z,7.87
2019-03-08T07:49:48.237Z,7.56
2019-03-08T07:50:40.937Z,7.44
2019-03-08T07:51:29.328Z,7.44
2019-03-08T07:52:29.328Z,7.37
2019-03-08T07:53:24.709Z,7.31
2019-03-08T07:54:15.934Z,7.31
2019-03-08T07:55:01.718Z,7.31
2019-03-08T07:55:54.992Z,7.31
2019-03-08T07:56:47.616Z,7.25
2019-03-08T07:57:55.580Z,7.19
2019-03-08T07:58:37.686Z,7.06
2019-03-08T07:59:30.833Z,6.94
2019-03-08T08:00:23.525Z,6.81
2019-03-08T08:01:16.237Z,6.75
2019-03-08T08:01:58.182Z,6.62
2019-03-08T08:02:48.979Z,6.62
2019-03-08T08:03:53.666Z,6.56
2019-03-08T08:04:54.224Z,6.56
2019-03-08T08:05:42.342Z,6.50
2019-03-08T08:06:29.708Z,6.50
2019-03-08T08:07:21.070Z,6.44
2019-03-08T08:08:03.384Z,6.44
2019-03-08T08:08:56.110Z,6.44
2019-03-08T08:13:04.905Z,6.37
2019-03-08T08:13:57.464Z,6.37
2019-03-08T08:14:40.252Z,6.37
2019-03-08T08:15:22.487Z,6.31
2019-03-08T08:16:06.761Z,6.31
2019-03-08T08:17:00.940Z,6.31
2019-03-08T08:17:53.264Z,6.37
2019-03-08T08:18:44.572Z,6.44
2019-03-08T08:19:37.086Z,6.44
2019-03-08T08:20:31.098Z,6.50
2019-03-08T08:21:29.710Z,6.50
2019-03-08T08:22:26.154Z,6.50
2019-03-08T08:23:34.265Z,6.50
2019-03-08T08:24:13.998Z,6.56
2019-03-08T08:25:09.576Z,6.62
2019-03-08T08:26:02.132Z,6.69
2019-03-08T08:26:43.420Z,6.69
2019-03-08T08:27:22.930Z,6.75
2019-03-08T08:28:14.424Z,6.75
2019-03-08T08:29:09.880Z,6.81
2019-03-08T08:29:54.764Z,6.94
2019-03-08T08:30:46.192Z,7.06
2019-03-08T08:31:44.267Z,7.19
2019-03-08T08:32:43.159Z,7.50
2019-03-08T08:33:30.581Z,7.62
2019-03-08T08:34:22.058Z,7.69
2019-03-08T08:35:02.309Z,7.62
2019-03-08T08:35:47.036Z,7.56
2019-03-08T08:36:39.684Z,7.56
2019-03-08T08:37:32.660Z,7.50
2019-03-08T08:38:22.408Z,7.44
2019-03-08T08:39:14.924Z,7.44
2019-03-08T08:41:58.553Z,7.50
2019-03-08T08:42:44.327Z,7.50
2019-03-08T08:43:43.080Z,7.50
2019-03-08T08:44:50.895Z,7.50
2019-03-08T08:45:33.102Z,7.50
2019-03-08T08:46:15.780Z,7.50
2019-03-08T08:47:17.438Z,7.44
2019-03-08T08:48:08.808Z,7.44
2019-03-08T08:48:50.246Z,7.44
2019-03-08T08:49:30.347Z,7.44
2019-03-08T08:50:26.586Z,7.50
2019-03-08T08:51:21.564Z,7.56
2019-03-08T08:52:05.788Z,7.56
2019-03-08T08:53:01.516Z,7.62
2019-03-08T08:53:40.942Z,7.62
2019-03-08T08:54:40.634Z,7.62
2019-03-08T08:55:34.599Z,7.62
2019-03-08T08:56:33.402Z,7.62
2019-03-08T08:57:24.302Z,7.62
2019-03-08T08:58:22.657Z,7.56
2019-03-08T08:59:02.884Z,7.62